• Join FlightAware (Why Join?)
  • Login
  • US Flag 
Rudolph Flight #1: Arrived! 
06:57AM EST


 

Airport Tracker/Info


-or-


 

Live Flight TrackerFlight Track Log ✈ N8378B ✈ 05-Jul-2013 ✈ KBVY - KACK

Flight Track Log - Related Links

Times and Time Zones

All times are in EDT time to prevent confusion due to time zone crossing. See the N8378B flight status page for this flight to view local times or setup timezone preferences in your user account.

Time Position Orientation Groundspeed Altitude Reporting Facility
EDT Latitude Longitude Course Direction KTS MPH feet Rate Location/Type
07:51AM 42.5833 -70.9333 180° South 78 90 700  Level KA90
07:53AM 42.5500 -70.9333 180° South 106 122 1,600 540 Climbing KA90
07:54AM 42.5333 -70.9500 216° Southwest 87 100 2,100 420 Climbing KA90
07:55AM 42.5000 -70.9500 180° South 91 105 2,500 360 Climbing KA90
07:56AM 42.4833 -70.9667 216° Southwest 87 100 2,900 360 Climbing KA90
07:57AM 42.4500 -70.9667 180° South 85 98 3,300 420 Climbing KA90
07:58AM 42.4333 -70.9833 216° Southwest 83 96 3,700 480 Climbing KA90
07:59AM 42.4167 -71.0000 216° Southwest 81 93 4,300 480 Climbing KA90
08:00AM 42.4000 -71.0333 236° Southwest 76 87 4,700 420 Climbing KA90
08:00AM 42.3833 -71.0500 216° Southwest 78 90 5,100 360 Climbing KA90
08:02AM 42.3667 -71.0667 216° Southwest 79 91 5,500 180 Climbing KA90
08:03AM 42.3500 -71.0833 216° Southwest 113 130 5,600  Climbing KA90
08:04AM 42.3167 -71.1167 216° Southwest 119 137 5,500  Descending KA90
08:05AM 42.2833 -71.1000 160° South 131 151 5,600  Climbing KA90
08:06AM 42.2500 -71.0833 160° South 131 151 5,600 -60 Level KA90
08:07AM 42.2333 -71.0500 124° Southeast 136 157 5,500 -120 Descending KA90
08:08AM 42.2234 -70.9934 103° East  Level FlightAware Approximate
08:15AM 42.1527 -70.5981 103° East  Level FlightAware Approximate
08:16AM 42.1424 -70.5417 104° East  Level FlightAware Approximate
08:17AM 42.1322 -70.4853 104° East  Level FlightAware Approximate
08:18AM 42.1219 -70.4289 104° East  Level FlightAware Approximate
08:19AM 42.1095 -70.3735 110° East  Level FlightAware Approximate
08:20AM 42.0947 -70.3189 110° East  Level FlightAware Approximate
08:21AM 42.0799 -70.2645 110° East  Level FlightAware Approximate
08:22AM 42.0650 -70.2100 110° East  Level FlightAware Approximate
08:23AM 42.0502 -70.1556 110° East  Level FlightAware Approximate
08:24AM 42.0353 -70.1012 110° East  Level FlightAware Approximate
08:25AM 42.0204 -70.0469 110° East  Level FlightAware Approximate
08:26AM 41.9843 -70.0345 182° South  Level FlightAware Approximate
08:27AM 41.9413 -70.0360 182° South  Level FlightAware Approximate
08:28AM 41.8983 -70.0376 182° South  Level FlightAware Approximate
08:29AM 41.8552 -70.0391 182° South  Level FlightAware Approximate
08:30AM 41.8122 -70.0407 182° South  Level FlightAware Approximate
08:31AM 41.7691 -70.0422 182° South  Level FlightAware Approximate
08:32AM 41.7261 -70.0437 182° South  Level FlightAware Approximate
08:33AM 41.6831 -70.0453 182° South  Level FlightAware Approximate
08:34AM 41.6400 -70.0468 182° South  Level FlightAware Approximate
08:35AM 41.5970 -70.0483 182° South  Level FlightAware Approximate
08:36AM 41.5539 -70.0499 182° South  Level FlightAware Approximate
08:37AM 41.5109 -70.0500 180° South  Level FlightAware Approximate
08:38AM 41.4679 -70.0500 180° South  Level FlightAware Approximate
08:39AM 41.4248 -70.0500 180° South  Level FlightAware Approximate
08:40AM 41.3818 -70.0500 180° South  Level FlightAware Approximate
08:41AM 41.3387 -70.0500 180° South  Level FlightAware Approximate
08:42AM 41.2957 -70.0500 180° South  Level FlightAware Approximate
08:43AM 41.2526 -70.0500 180° South  Level FlightAware Approximate
08:44AM 41.2500 -70.0500 180° South  Level FlightAware Approximate
08:45AM 41.2531 -70.0603 180° South  Level Estimated
08:46AM 41.2531 -70.0603 180° South  Level Estimated
08:47AM 41.2531 -70.0603 180° South  Level Estimated
08:48AM 41.2531 -70.0603 180° South  Level Estimated
08:49AM 41.2531 -70.0603 180° South  Level Estimated
08:50AM 41.2531 -70.0603 180° South  Level Estimated
08:51AM 41.2531 -70.0603 180° South  Level Estimated
08:52AM 41.2531 -70.0603 180° South  Level Estimated
08:53AM 41.2531 -70.0603 180° South  Level Estimated
08:54AM 41.2531 -70.0603 180° South  Level Estimated
08:55AM 41.2531 -70.0603 180° South  Level Estimated
08:56AM 41.2531 -70.0603 180° South  Level Estimated
08:57AM 41.2531 -70.0603 180° South  Level Estimated
08:58AM 41.2531 -70.0603 180° South  Level Estimated
08:59AM 41.2531 -70.0603 180° South  Level Estimated
09:00AM 41.2531 -70.0603 180° South  Level Estimated
09:01AM 41.2531 -70.0603 180° South  Level Estimated
09:02AM 41.2531 -70.0603 180° South  Level Estimated
09:03AM 41.2531 -70.0603 180° South  Level Estimated
09:04AM 41.2531 -70.0603 180° South  Level Estimated
09:05AM 41.2531 -70.0603 180° South  Level Estimated
09:06AM 41.2531 -70.0603 180° South  Level Estimated
09:07AM 41.2531 -70.0603 180° South  Level Estimated
09:08AM 41.2531 -70.0603 180° South  Level Estimated
09:09AM 41.2531 -70.0603 180° South  Level Estimated